createdAt,value
2022-08-29T00:00:23.268Z,18.03
2022-08-29T00:03:08.374Z,18.00
2022-08-29T00:05:39.818Z,18.03
2022-08-29T00:08:09.013Z,18.04
2022-08-29T00:10:39.302Z,18.06
2022-08-29T00:13:09.967Z,18.06
2022-08-29T00:15:42.091Z,18.08
2022-08-29T00:18:16.552Z,18.10
2022-08-29T00:20:45.558Z,18.09
2022-08-29T00:23:13.817Z,18.06
2022-08-29T00:25:42.467Z,18.04
2022-08-29T00:28:10.962Z,18.03
2022-08-29T00:30:42.143Z,18.01
2022-08-29T00:33:10.317Z,18.00
2022-08-29T00:35:42.624Z,17.97
2022-08-29T00:38:15.809Z,17.94
2022-08-29T00:40:54.214Z,17.90
2022-08-29T00:43:25.925Z,17.88
2022-08-29T00:46:06.130Z,17.86
2022-08-29T00:48:36.540Z,17.84
2022-08-29T00:51:20.425Z,17.83
2022-08-29T00:53:52.863Z,17.82
2022-08-29T00:56:21.762Z,17.80
2022-08-29T00:59:01.257Z,17.78
2022-08-29T01:01:29.599Z,17.73
2022-08-29T01:03:57.855Z,17.69
2022-08-29T01:06:29.101Z,17.66
2022-08-29T01:08:58.322Z,17.63
2022-08-29T01:11:50.733Z,17.61
2022-08-29T01:14:26.101Z,17.58
2022-08-29T01:16:57.873Z,17.55
2022-08-29T01:19:41.470Z,17.52
2022-08-29T01:22:15.820Z,17.46
2022-08-29T01:24:51.122Z,17.44
2022-08-29T01:27:23.515Z,17.40
2022-08-29T01:29:51.531Z,17.39
2022-08-29T01:32:20.276Z,17.37
2022-08-29T01:34:49.372Z,17.35
2022-08-29T01:37:18.208Z,17.32
2022-08-29T01:39:47.205Z,17.29
2022-08-29T01:42:22.653Z,17.28
2022-08-29T01:45:00.563Z,17.26
2022-08-29T01:47:38.006Z,17.23
2022-08-29T01:50:14.053Z,17.20
2022-08-29T01:52:43.478Z,17.13
2022-08-29T01:55:12.066Z,17.07
2022-08-29T01:57:41.050Z,17.01
2022-08-29T02:00:11.166Z,16.97
2022-08-29T02:02:40.362Z,16.95
2022-08-29T02:05:10.319Z,16.93
2022-08-29T02:07:40.766Z,16.91
2022-08-29T02:10:09.573Z,16.89
2022-08-29T02:12:38.314Z,16.85
2022-08-29T02:15:07.918Z,16.82
2022-08-29T02:17:38.660Z,16.79
2022-08-29T02:20:10.945Z,16.76
2022-08-29T02:22:40.446Z,16.73
2022-08-29T02:25:28.924Z,16.72
2022-08-29T02:27:59.629Z,16.67
2022-08-29T02:30:27.693Z,16.64
2022-08-29T02:32:55.919Z,16.62
2022-08-29T02:35:24.289Z,16.61
2022-08-29T02:37:52.646Z,16.60
2022-08-29T02:40:31.723Z,16.57
2022-08-29T02:43:01.005Z,16.54
2022-08-29T02:45:30.432Z,16.53
2022-08-29T02:48:01.605Z,16.49
2022-08-29T02:50:30.392Z,16.48
2022-08-29T02:52:58.736Z,16.47
2022-08-29T02:55:27.110Z,16.45
2022-08-29T02:57:55.355Z,16.44
2022-08-29T03:00:26.667Z,16.43
2022-08-29T03:02:56.502Z,16.39
2022-08-29T03:05:27.890Z,16.37
2022-08-29T03:07:57.924Z,16.35
2022-08-29T03:10:27.421Z,16.35
2022-08-29T03:12:56.008Z,16.33
2022-08-29T03:15:24.151Z,16.32
2022-08-29T03:17:52.367Z,16.31
2022-08-29T03:20:22.512Z,16.28
2022-08-29T03:22:52.862Z,16.27
2022-08-29T03:25:21.943Z,16.26
2022-08-29T03:27:50.367Z,16.25
2022-08-29T03:30:19.309Z,16.24
2022-08-29T03:32:48.555Z,16.24
2022-08-29T03:35:19.795Z,16.22
2022-08-29T03:37:49.054Z,16.21
2022-08-29T03:40:19.365Z,16.19
2022-08-29T03:42:48.273Z,16.18
2022-08-29T03:45:19.536Z,16.17
2022-08-29T03:47:47.830Z,16.17
2022-08-29T03:50:19.780Z,16.17
2022-08-29T03:52:49.277Z,16.16
2022-08-29T03:55:20.381Z,16.15
2022-08-29T03:57:48.557Z,16.14
2022-08-29T04:00:19.524Z,16.12
2022-08-29T04:02:49.192Z,16.10
2022-08-29T04:05:18.224Z,16.09
2022-08-29T04:07:53.499Z,16.11
2022-08-29T04:10:28.367Z,16.13
2022-08-29T04:12:57.515Z,16.16
2022-08-29T04:15:30.152Z,16.18
2022-08-29T04:18:01.418Z,16.20
2022-08-29T04:20:33.018Z,16.23
2022-08-29T04:23:01.784Z,16.27
2022-08-29T04:25:37.636Z,16.27
2022-08-29T04:28:08.779Z,16.32
2022-08-29T04:30:39.803Z,16.35
2022-08-29T04:33:07.917Z,16.38
2022-08-29T04:35:37.468Z,16.43
2022-08-29T04:38:05.868Z,16.46
2022-08-29T04:40:35.290Z,16.49
2022-08-29T04:43:04.283Z,16.52
2022-08-29T04:45:33.606Z,16.54
2022-08-29T04:48:04.064Z,16.56
2022-08-29T04:50:32.771Z,16.61
2022-08-29T04:53:02.144Z,16.66
2022-08-29T04:55:31.348Z,16.72
2022-08-29T04:57:59.796Z,16.74
2022-08-29T05:00:30.367Z,16.77
2022-08-29T05:03:01.217Z,16.82
2022-08-29T05:05:29.453Z,16.84
2022-08-29T05:07:58.791Z,16.90
2022-08-29T05:10:27.043Z,16.99
2022-08-29T05:12:55.353Z,17.09
2022-08-29T05:15:23.656Z,17.18
2022-08-29T05:17:54.818Z,17.27
2022-08-29T05:20:22.906Z,17.36
2022-08-29T05:22:51.184Z,17.43
2022-08-29T05:25:22.426Z,17.50
2022-08-29T05:27:50.794Z,17.57
2022-08-29T05:30:34.017Z,17.62
2022-08-29T05:33:08.684Z,17.74
2022-08-29T05:35:38.204Z,17.86
2022-08-29T05:38:11.769Z,17.99
2022-08-29T05:40:40.285Z,18.10
2022-08-29T05:43:13.079Z,18.23
2022-08-29T05:45:41.880Z,18.35
2022-08-29T05:48:10.301Z,18.46
2022-08-29T05:50:43.206Z,18.58
2022-08-29T05:53:16.726Z,18.64
2022-08-29T05:55:50.743Z,18.77
2022-08-29T05:58:20.560Z,18.88
2022-08-29T06:00:49.860Z,18.97
2022-08-29T06:03:18.192Z,19.04
2022-08-29T06:05:51.920Z,19.12
2022-08-29T06:08:22.985Z,19.26
2022-08-29T06:10:51.067Z,19.39
2022-08-29T06:13:20.303Z,19.48
2022-08-29T06:15:50.783Z,19.60
2022-08-29T06:18:18.930Z,19.71
2022-08-29T06:20:55.204Z,19.85
2022-08-29T06:23:23.497Z,19.94
2022-08-29T06:25:59.660Z,19.99
2022-08-29T06:28:30.148Z,20.04
2022-08-29T06:31:07.017Z,20.15
2022-08-29T06:33:36.498Z,20.29
2022-08-29T06:36:06.926Z,20.43
2022-08-29T06:38:36.007Z,20.59
2022-08-29T06:41:12.523Z,20.74
2022-08-29T06:43:41.505Z,20.92
2022-08-29T06:46:27.009Z,21.09
2022-08-29T06:48:56.091Z,21.32
2022-08-29T06:51:26.573Z,21.55
2022-08-29T06:53:54.689Z,21.79
2022-08-29T06:56:23.281Z,22.01
2022-08-29T06:58:55.917Z,22.20
2022-08-29T07:01:25.491Z,22.37
2022-08-29T07:03:57.876Z,22.54
2022-08-29T07:06:27.672Z,22.67
2022-08-29T07:08:57.869Z,22.81
2022-08-29T07:11:31.345Z,22.85
2022-08-29T07:14:02.695Z,22.96
2022-08-29T07:16:33.676Z,23.05
2022-08-29T07:19:04.325Z,23.14
2022-08-29T07:21:33.277Z,23.30
2022-08-29T07:24:02.256Z,23.52
2022-08-29T07:26:36.382Z,23.64
2022-08-29T07:29:09.263Z,23.78
2022-08-29T07:31:39.756Z,23.96
2022-08-29T07:34:08.999Z,24.04
2022-08-29T07:36:38.131Z,24.24
2022-08-29T07:39:13.513Z,24.35
2022-08-29T07:41:43.848Z,24.53
2022-08-29T07:44:15.236Z,24.58
2022-08-29T07:46:44.075Z,24.64
2022-08-29T07:49:12.750Z,24.79
2022-08-29T07:51:44.498Z,25.00
2022-08-29T07:54:17.046Z,25.01
2022-08-29T07:56:49.017Z,24.94
2022-08-29T07:59:19.742Z,25.04
2022-08-29T08:01:48.542Z,25.32
2022-08-29T08:04:16.917Z,25.45
2022-08-29T08:06:47.979Z,25.57
2022-08-29T08:09:16.604Z,25.62
2022-08-29T08:11:45.398Z,25.72
2022-08-29T08:14:14.024Z,25.77
2022-08-29T08:16:44.307Z,25.80
2022-08-29T08:19:17.092Z,25.89
2022-08-29T08:21:49.738Z,25.89
2022-08-29T08:24:23.212Z,25.86
2022-08-29T08:26:52.999Z,25.77
2022-08-29T08:29:22.386Z,25.70
2022-08-29T08:31:51.869Z,25.58
2022-08-29T08:34:23.016Z,25.39
2022-08-29T08:36:51.322Z,25.25
2022-08-29T08:39:19.720Z,25.06
2022-08-29T08:42:29.426Z,24.83
2022-08-29T08:44:58.666Z,24.53
2022-08-29T08:47:42.703Z,24.32
2022-08-29T08:50:33.247Z,24.18
2022-08-29T08:53:20.873Z,24.10
2022-08-29T08:55:54.570Z,24.11
2022-08-29T08:59:00.458Z,24.13
2022-08-29T09:01:57.283Z,24.13
2022-08-29T09:04:44.305Z,24.14
2022-08-29T09:07:34.320Z,24.09
2022-08-29T09:10:35.226Z,24.08
2022-08-29T09:13:12.498Z,24.00
2022-08-29T09:15:45.258Z,24.04
2022-08-29T09:18:24.671Z,24.04
2022-08-29T09:20:54.478Z,23.99
2022-08-29T09:23:40.789Z,24.01
2022-08-29T09:26:16.705Z,23.99
2022-08-29T09:28:45.712Z,24.12
2022-08-29T09:31:17.057Z,24.26
2022-08-29T09:34:01.209Z,24.40
2022-08-29T09:36:51.134Z,24.42
2022-08-29T09:39:26.678Z,24.44
2022-08-29T09:42:13.948Z,24.42
2022-08-29T09:45:41.399Z,24.35
2022-08-29T09:48:17.557Z,24.35
2022-08-29T09:50:46.479Z,24.35
2022-08-29T09:53:25.137Z,24.35
2022-08-29T09:55:54.104Z,24.31
2022-08-29T09:58:24.524Z,24.30
2022-08-29T10:01:12.417Z,24.27
2022-08-29T10:03:54.595Z,24.26
2022-08-29T10:06:29.141Z,24.20
2022-08-29T10:09:17.913Z,24.09
2022-08-29T10:12:01.358Z,23.91
2022-08-29T10:14:33.939Z,23.76
2022-08-29T10:17:29.143Z,23.59
2022-08-29T10:19:57.587Z,23.47
2022-08-29T10:22:44.938Z,23.26
2022-08-29T10:25:21.139Z,23.00
2022-08-29T10:28:21.558Z,22.81
2022-08-29T10:30:57.273Z,22.63
2022-08-29T10:34:11.434Z,22.36
2022-08-29T10:36:43.674Z,22.24
2022-08-29T10:39:41.495Z,22.09
2022-08-29T10:42:15.866Z,22.03
2022-08-29T10:45:15.555Z,21.93
2022-08-29T10:48:04.804Z,21.85
2022-08-29T10:50:49.513Z,21.86
2022-08-29T10:53:24.763Z,21.91
2022-08-29T10:55:56.214Z,22.01
2022-08-29T10:58:50.592Z,22.10
2022-08-29T11:01:33.350Z,22.26
2022-08-29T11:04:04.567Z,22.44
2022-08-29T11:06:43.168Z,22.65
2022-08-29T11:09:34.444Z,22.83
2022-08-29T11:12:19.888Z,22.91
2022-08-29T11:15:14.508Z,23.14
2022-08-29T11:17:49.326Z,23.34
2022-08-29T11:20:22.598Z,23.59
2022-08-29T11:22:54.280Z,23.73
2022-08-29T11:25:23.058Z,23.79
2022-08-29T11:28:12.534Z,24.10
2022-08-29T11:30:50.009Z,24.32
2022-08-29T11:33:24.476Z,24.33
2022-08-29T11:36:15.095Z,24.45
2022-08-29T11:39:04.626Z,24.48
2022-08-29T11:41:39.743Z,24.47
2022-08-29T11:44:14.349Z,24.37
2022-08-29T11:46:53.500Z,24.26
2022-08-29T11:49:28.009Z,24.06
2022-08-29T11:52:12.769Z,23.94
2022-08-29T11:54:47.844Z,23.84
2022-08-29T11:57:16.522Z,23.80
2022-08-29T11:59:51.153Z,23.70
2022-08-29T12:02:31.288Z,23.68
2022-08-29T12:05:01.272Z,23.63
2022-08-29T12:07:44.121Z,23.61
2022-08-29T12:10:24.289Z,23.52
2022-08-29T12:13:07.598Z,23.46
2022-08-29T12:15:35.841Z,23.40
2022-08-29T12:18:17.336Z,23.34
2022-08-29T12:20:49.192Z,23.07
2022-08-29T12:23:45.290Z,22.82
2022-08-29T12:26:44.285Z,22.59
2022-08-29T12:29:26.753Z,22.25
2022-08-29T12:32:18.066Z,21.98
2022-08-29T12:35:16.471Z,21.67
2022-08-29T12:38:10.928Z,21.52
2022-08-29T12:40:51.580Z,21.36
2022-08-29T12:43:45.946Z,21.22
2022-08-29T12:46:33.643Z,21.03
2022-08-29T12:49:09.035Z,20.94
2022-08-29T12:51:40.828Z,20.85
2022-08-29T12:54:11.485Z,20.76
2022-08-29T12:56:47.849Z,20.68
2022-08-29T12:59:20.874Z,20.63
2022-08-29T13:01:56.121Z,20.61
2022-08-29T13:04:33.785Z,20.54
2022-08-29T13:07:16.997Z,20.47
2022-08-29T13:09:52.898Z,20.42
2022-08-29T13:12:26.008Z,20.40
2022-08-29T13:14:59.155Z,20.32
2022-08-29T13:17:34.613Z,20.26
2022-08-29T13:20:46.158Z,20.28
2022-08-29T13:23:23.372Z,20.33
2022-08-29T13:26:17.713Z,20.38
2022-08-29T13:29:08.145Z,20.46
2022-08-29T13:31:38.180Z,20.54
2022-08-29T13:34:06.817Z,20.66
2022-08-29T13:37:07.840Z,20.79
2022-08-29T13:39:46.352Z,20.82
2022-08-29T13:42:33.096Z,20.85
2022-08-29T13:45:08.132Z,20.88
2022-08-29T13:47:52.491Z,20.92
2022-08-29T13:50:21.658Z,21.02
2022-08-29T13:52:55.395Z,21.04
2022-08-29T13:55:24.243Z,21.14
2022-08-29T13:57:54.403Z,21.28
2022-08-29T14:00:32.458Z,21.35
2022-08-29T14:03:07.528Z,21.42
2022-08-29T14:05:37.184Z,21.51
2022-08-29T14:08:06.965Z,21.56
2022-08-29T14:10:35.663Z,21.65
2022-08-29T14:13:05.986Z,21.79
2022-08-29T14:15:34.725Z,21.80
2022-08-29T14:18:04.087Z,21.90
2022-08-29T14:20:32.826Z,21.98
2022-08-29T14:23:01.313Z,22.11
2022-08-29T14:25:29.453Z,22.19
2022-08-29T14:27:57.657Z,22.22
2022-08-29T14:30:27.210Z,22.29
2022-08-29T14:32:55.509Z,22.30
2022-08-29T14:35:26.740Z,22.42
2022-08-29T14:38:01.389Z,22.56
2022-08-29T14:40:33.264Z,22.49
2022-08-29T14:43:02.950Z,22.61
2022-08-29T14:45:32.398Z,22.63
2022-08-29T14:48:01.358Z,22.72
2022-08-29T14:50:30.833Z,22.82
2022-08-29T14:52:59.497Z,23.01
2022-08-29T14:55:27.958Z,23.24
2022-08-29T14:57:56.129Z,23.50
2022-08-29T15:00:28.494Z,23.72
2022-08-29T15:02:58.033Z,23.98
2022-08-29T15:05:26.553Z,24.10
2022-08-29T15:07:55.666Z,24.18
2022-08-29T15:10:25.302Z,24.34
2022-08-29T15:12:53.886Z,24.54
2022-08-29T15:15:31.696Z,24.58
2022-08-29T15:18:02.638Z,24.46
2022-08-29T15:20:37.834Z,24.53
2022-08-29T15:23:08.383Z,24.65
2022-08-29T15:25:36.656Z,24.74
2022-08-29T15:28:05.803Z,24.68
2022-08-29T15:30:34.779Z,24.71
2022-08-29T15:33:03.587Z,24.65
2022-08-29T15:35:32.059Z,24.51
2022-08-29T15:38:00.542Z,24.17
2022-08-29T15:40:29.162Z,23.95
2022-08-29T15:42:57.444Z,23.92
2022-08-29T15:45:25.665Z,23.86
2022-08-29T15:47:54.662Z,23.75
2022-08-29T15:50:23.231Z,23.62
2022-08-29T15:52:51.326Z,23.60
2022-08-29T15:55:20.247Z,23.46
2022-08-29T15:57:51.444Z,23.41
2022-08-29T16:00:29.782Z,23.33
2022-08-29T16:03:02.841Z,23.25
2022-08-29T16:05:39.360Z,23.18
2022-08-29T16:08:07.655Z,23.16
2022-08-29T16:10:39.289Z,23.09
2022-08-29T16:13:08.226Z,23.03
2022-08-29T16:15:36.565Z,22.96
2022-08-29T16:18:05.763Z,22.93
2022-08-29T16:20:34.660Z,22.88
2022-08-29T16:23:04.723Z,22.86
2022-08-29T16:25:36.444Z,22.80
2022-08-29T16:28:06.230Z,22.75
2022-08-29T16:30:35.138Z,22.71
2022-08-29T16:33:06.309Z,22.67
2022-08-29T16:35:34.700Z,22.64
2022-08-29T16:38:03.539Z,22.58
2022-08-29T16:40:32.792Z,22.52
2022-08-29T16:43:05.073Z,22.50
2022-08-29T16:45:34.508Z,22.42
2022-08-29T16:48:14.777Z,22.35
2022-08-29T16:50:44.359Z,22.31
2022-08-29T16:53:12.722Z,22.28
2022-08-29T16:55:42.038Z,22.21
2022-08-29T16:58:28.952Z,22.19
2022-08-29T17:00:57.569Z,22.12
2022-08-29T17:03:27.546Z,22.00
2022-08-29T17:05:56.474Z,22.01
2022-08-29T17:08:24.971Z,21.92
2022-08-29T17:10:53.339Z,21.90
2022-08-29T17:13:21.475Z,21.79
2022-08-29T17:15:49.826Z,21.71
2022-08-29T17:18:18.437Z,21.67
2022-08-29T17:20:49.090Z,21.64
2022-08-29T17:23:18.936Z,21.65
2022-08-29T17:25:47.283Z,21.59
2022-08-29T17:28:27.733Z,21.55
2022-08-29T17:30:57.668Z,21.53
2022-08-29T17:33:27.472Z,21.50
2022-08-29T17:35:56.320Z,21.44
2022-08-29T17:38:26.254Z,21.39
2022-08-29T17:40:59.419Z,21.37
2022-08-29T17:43:29.117Z,21.35
2022-08-29T17:45:57.804Z,21.38
2022-08-29T17:48:26.104Z,21.33
2022-08-29T17:50:54.460Z,21.28
2022-08-29T17:53:25.293Z,21.24
2022-08-29T17:55:54.104Z,21.21
2022-08-29T17:58:23.323Z,21.23
2022-08-29T18:00:52.456Z,21.21
2022-08-29T18:03:20.745Z,21.18
2022-08-29T18:05:49.254Z,21.21
2022-08-29T18:08:17.646Z,21.16
2022-08-29T18:10:45.938Z,21.14
2022-08-29T18:13:16.592Z,21.14
2022-08-29T18:15:46.812Z,21.12
2022-08-29T18:18:19.258Z,21.10
2022-08-29T18:20:47.589Z,21.06
2022-08-29T18:23:16.052Z,21.02
2022-08-29T18:25:44.154Z,21.01
2022-08-29T18:28:12.343Z,20.96
2022-08-29T18:30:41.155Z,20.91
2022-08-29T18:33:10.432Z,20.92
2022-08-29T18:35:38.764Z,20.91
2022-08-29T18:38:08.049Z,20.89
2022-08-29T18:40:39.559Z,20.88
2022-08-29T18:43:09.885Z,20.86
2022-08-29T18:45:40.222Z,20.88
2022-08-29T18:48:08.996Z,20.86
2022-08-29T18:50:37.478Z,20.85
2022-08-29T18:53:14.107Z,20.83
2022-08-29T18:55:50.347Z,20.79
2022-08-29T18:58:26.568Z,20.77
2022-08-29T19:00:55.570Z,20.76
2022-08-29T19:03:23.804Z,20.78
2022-08-29T19:05:52.514Z,20.71
2022-08-29T19:08:27.877Z,20.70
2022-08-29T19:10:56.352Z,20.71
2022-08-29T19:13:25.738Z,20.68
2022-08-29T19:15:57.997Z,20.70
2022-08-29T19:18:27.343Z,20.67
2022-08-29T19:21:09.701Z,20.66
2022-08-29T19:23:44.122Z,20.70
2022-08-29T19:26:18.798Z,20.71
2022-08-29T19:28:47.200Z,20.68
2022-08-29T19:31:17.371Z,20.71
2022-08-29T19:33:46.614Z,20.72
2022-08-29T19:36:15.184Z,20.69
2022-08-29T19:38:44.028Z,20.68
2022-08-29T19:41:12.563Z,20.71
2022-08-29T19:43:41.127Z,20.71
2022-08-29T19:46:14.439Z,20.67
2022-08-29T19:48:48.630Z,20.62
2022-08-29T19:51:22.290Z,20.57
2022-08-29T19:53:57.271Z,20.55
2022-08-29T19:56:26.767Z,20.54
2022-08-29T19:58:57.111Z,20.53
2022-08-29T20:01:26.397Z,20.53
2022-08-29T20:03:55.751Z,20.49
2022-08-29T20:06:25.184Z,20.50
2022-08-29T20:08:53.206Z,20.46
2022-08-29T20:11:25.918Z,20.46
2022-08-29T20:13:57.724Z,20.41
2022-08-29T20:16:31.744Z,20.42
2022-08-29T20:19:02.737Z,20.45
2022-08-29T20:21:36.915Z,20.44
2022-08-29T20:24:05.870Z,20.46
2022-08-29T20:26:38.302Z,20.44
2022-08-29T20:29:11.407Z,20.46
2022-08-29T20:31:40.274Z,20.46
2022-08-29T20:34:09.211Z,20.48
2022-08-29T20:36:55.909Z,20.44
2022-08-29T20:39:24.622Z,20.44
2022-08-29T20:41:59.580Z,20.39
2022-08-29T20:44:33.827Z,20.40
2022-08-29T20:47:03.003Z,20.39
2022-08-29T20:49:31.659Z,20.37
2022-08-29T20:52:01.329Z,20.37
2022-08-29T20:54:31.600Z,20.38
2022-08-29T20:57:00.017Z,20.36
2022-08-29T20:59:31.446Z,20.33
2022-08-29T21:02:04.193Z,20.33
2022-08-29T21:04:50.931Z,20.29
2022-08-29T21:07:20.735Z,20.28
2022-08-29T21:09:52.624Z,20.28
2022-08-29T21:12:22.477Z,20.29
2022-08-29T21:14:55.801Z,20.25
2022-08-29T21:17:24.137Z,20.28
2022-08-29T21:19:52.159Z,20.26
2022-08-29T21:22:24.329Z,20.24
2022-08-29T21:24:55.627Z,20.25
2022-08-29T21:27:23.759Z,20.14
2022-08-29T21:29:55.760Z,20.13
2022-08-29T21:32:23.826Z,20.13
2022-08-29T21:34:51.839Z,20.17
2022-08-29T21:37:19.866Z,20.10
2022-08-29T21:39:48.701Z,20.09
2022-08-29T21:42:16.796Z,20.12
2022-08-29T21:44:44.850Z,20.13
2022-08-29T21:47:17.632Z,20.13
2022-08-29T21:49:48.485Z,20.08
2022-08-29T21:52:16.529Z,20.03
2022-08-29T21:54:45.732Z,20.02
2022-08-29T21:57:32.304Z,20.03
2022-08-29T22:00:00.328Z,20.03
2022-08-29T22:02:28.619Z,20.06
2022-08-29T22:04:56.791Z,20.07
2022-08-29T22:07:24.783Z,20.03
2022-08-29T22:09:53.726Z,20.01
2022-08-29T22:12:21.944Z,19.99
2022-08-29T22:15:08.554Z,19.98
2022-08-29T22:17:36.994Z,19.97
2022-08-29T22:20:05.428Z,19.92
2022-08-29T22:22:33.577Z,19.90
2022-08-29T22:25:03.514Z,19.88
2022-08-29T22:27:33.029Z,19.89
2022-08-29T22:30:02.180Z,19.88
2022-08-29T22:32:32.328Z,19.85
2022-08-29T22:35:06.689Z,19.86
2022-08-29T22:37:37.060Z,19.81
2022-08-29T22:40:16.650Z,19.78
2022-08-29T22:42:46.121Z,19.73
2022-08-29T22:45:16.276Z,19.68
2022-08-29T22:47:47.485Z,19.69
2022-08-29T22:50:18.589Z,19.67
2022-08-29T22:52:47.612Z,19.64
2022-08-29T22:57:49.675Z,19.60
2022-08-29T23:00:21.470Z,19.61
2022-08-29T23:02:50.857Z,19.57
2022-08-29T23:05:20.233Z,19.58
2022-08-29T23:07:48.520Z,19.60
2022-08-29T23:10:18.532Z,19.60
2022-08-29T23:12:46.675Z,19.67
2022-08-29T23:15:17.496Z,19.66
2022-08-29T23:17:45.633Z,19.68
2022-08-29T23:20:15.316Z,19.69
2022-08-29T23:22:44.419Z,19.73
2022-08-29T23:25:13.468Z,19.76
2022-08-29T23:27:41.677Z,19.70
2022-08-29T23:30:12.146Z,19.70
2022-08-29T23:32:40.800Z,19.71
2022-08-29T23:35:09.395Z,19.69
2022-08-29T23:37:37.567Z,19.65
2022-08-29T23:40:07.039Z,19.62
2022-08-29T23:42:35.081Z,19.65
2022-08-29T23:45:03.224Z,19.62
2022-08-29T23:47:31.967Z,19.59
2022-08-29T23:50:00.037Z,19.56
2022-08-29T23:52:28.036Z,19.61
2022-08-29T23:54:56.735Z,19.60
2022-08-29T23:57:24.740Z,19.55
